sensor_id;sensor_type;location;lat;lon;timestamp;temperature;humidity
8862;DHT22;4799;50.996;4.754;2022-11-21T00:00:44;6.50;99.90
8862;DHT22;4799;50.996;4.754;2022-11-21T00:03:10;6.60;99.90
8862;DHT22;4799;50.996;4.754;2022-11-21T00:05:42;6.60;99.90
8862;DHT22;4799;50.996;4.754;2022-11-21T00:08:13;6.70;99.90
8862;DHT22;4799;50.996;4.754;2022-11-21T00:10:39;6.80;99.90
8862;DHT22;4799;50.996;4.754;2022-11-21T00:13:07;6.80;99.90
8862;DHT22;4799;50.996;4.754;2022-11-21T00:15:33;6.90;99.90
8862;DHT22;4799;50.996;4.754;2022-11-21T00:18:02;7.00;99.90
8862;DHT22;4799;50.996;4.754;2022-11-21T00:20:29;7.00;99.90
8862;DHT22;4799;50.996;4.754;2022-11-21T00:22:55;7.00;99.90
8862;DHT22;4799;50.996;4.754;2022-11-21T00:25:20;7.00;99.90
8862;DHT22;4799;50.996;4.754;2022-11-21T00:27:46;7.10;99.90
8862;DHT22;4799;50.996;4.754;2022-11-21T00:30:12;7.10;99.90
8862;DHT22;4799;50.996;4.754;2022-11-21T00:32:38;7.10;99.90
8862;DHT22;4799;50.996;4.754;2022-11-21T00:35:04;7.10;99.90
8862;DHT22;4799;50.996;4.754;2022-11-21T00:37:31;7.10;99.90
8862;DHT22;4799;50.996;4.754;2022-11-21T00:39:57;7.10;99.90
8862;DHT22;4799;50.996;4.754;2022-11-21T00:42:23;7.10;99.90
8862;DHT22;4799;50.996;4.754;2022-11-21T00:44:49;7.10;99.90
8862;DHT22;4799;50.996;4.754;2022-11-21T00:47:14;7.10;99.90
8862;DHT22;4799;50.996;4.754;2022-11-21T00:49:40;7.10;99.90
8862;DHT22;4799;50.996;4.754;2022-11-21T00:52:06;7.10;99.90
8862;DHT22;4799;50.996;4.754;2022-11-21T00:54:31;7.10;99.90
8862;DHT22;4799;50.996;4.754;2022-11-21T00:56:57;7.10;99.90
8862;DHT22;4799;50.996;4.754;2022-11-21T00:59:23;7.00;99.90
8862;DHT22;4799;50.996;4.754;2022-11-21T01:01:48;7.00;99.90
8862;DHT22;4799;50.996;4.754;2022-11-21T01:04:14;6.90;99.90
8862;DHT22;4799;50.996;4.754;2022-11-21T01:06:40;6.70;99.90
8862;DHT22;4799;50.996;4.754;2022-11-21T01:09:06;6.70;99.90
8862;DHT22;4799;50.996;4.754;2022-11-21T01:11:32;6.60;99.90
8862;DHT22;4799;50.996;4.754;2022-11-21T01:13:58;6.60;99.90
8862;DHT22;4799;50.996;4.754;2022-11-21T01:16:26;6.50;99.90
8862;DHT22;4799;50.996;4.754;2022-11-21T01:18:52;6.50;99.90
8862;DHT22;4799;50.996;4.754;2022-11-21T01:21:20;6.40;99.90
8862;DHT22;4799;50.996;4.754;2022-11-21T01:23:46;6.30;99.90
8862;DHT22;4799;50.996;4.754;2022-11-21T01:26:15;6.30;99.90
8862;DHT22;4799;50.996;4.754;2022-11-21T01:28:41;6.20;99.90
8862;DHT22;4799;50.996;4.754;2022-11-21T01:31:24;6.10;99.90
8862;DHT22;4799;50.996;4.754;2022-11-21T01:33:51;6.10;99.90
8862;DHT22;4799;50.996;4.754;2022-11-21T01:36:19;6.20;99.90
8862;DHT22;4799;50.996;4.754;2022-11-21T01:38:48;6.20;99.90
8862;DHT22;4799;50.996;4.754;2022-11-21T01:41:17;6.20;99.90
8862;DHT22;4799;50.996;4.754;2022-11-21T01:43:43;6.30;99.90
8862;DHT22;4799;50.996;4.754;2022-11-21T01:46:20;6.40;99.90
8862;DHT22;4799;50.996;4.754;2022-11-21T01:54:56;6.50;99.90
8862;DHT22;4799;50.996;4.754;2022-11-21T01:57:32;6.50;99.90
8862;DHT22;4799;50.996;4.754;2022-11-21T02:00:33;6.60;99.90
8862;DHT22;4799;50.996;4.754;2022-11-21T02:03:00;6.60;99.90
8862;DHT22;4799;50.996;4.754;2022-11-21T02:05:30;6.60;99.90
8862;DHT22;4799;50.996;4.754;2022-11-21T02:08:02;6.60;99.90
8862;DHT22;4799;50.996;4.754;2022-11-21T02:10:29;6.70;99.90
8862;DHT22;4799;50.996;4.754;2022-11-21T02:12:55;6.70;99.90
8862;DHT22;4799;50.996;4.754;2022-11-21T02:15:25;6.70;99.90
8862;DHT22;4799;50.996;4.754;2022-11-21T02:17:51;6.70;99.90
8862;DHT22;4799;50.996;4.754;2022-11-21T02:20:20;6.70;99.90
8862;DHT22;4799;50.996;4.754;2022-11-21T02:23:04;6.70;99.90
8862;DHT22;4799;50.996;4.754;2022-11-21T02:25:37;6.70;99.90
8862;DHT22;4799;50.996;4.754;2022-11-21T02:28:08;6.80;99.90
8862;DHT22;4799;50.996;4.754;2022-11-21T02:30:39;6.80;99.90
8862;DHT22;4799;50.996;4.754;2022-11-21T02:33:05;6.80;99.90
8862;DHT22;4799;50.996;4.754;2022-11-21T02:35:31;6.80;99.90
8862;DHT22;4799;50.996;4.754;2022-11-21T02:38:05;6.80;99.90
8862;DHT22;4799;50.996;4.754;2022-11-21T02:40:35;6.80;99.90
8862;DHT22;4799;50.996;4.754;2022-11-21T02:43:15;6.80;99.90
8862;DHT22;4799;50.996;4.754;2022-11-21T02:45:43;6.80;99.90
8862;DHT22;4799;50.996;4.754;2022-11-21T02:48:10;6.80;99.90
8862;DHT22;4799;50.996;4.754;2022-11-21T02:50:41;6.80;99.90
8862;DHT22;4799;50.996;4.754;2022-11-21T02:53:12;6.80;99.90
8862;DHT22;4799;50.996;4.754;2022-11-21T02:55:38;6.80;99.90
8862;DHT22;4799;50.996;4.754;2022-11-21T02:58:04;6.80;99.90
8862;DHT22;4799;50.996;4.754;2022-11-21T03:00:31;6.80;99.90
8862;DHT22;4799;50.996;4.754;2022-11-21T03:02:57;6.80;99.90
8862;DHT22;4799;50.996;4.754;2022-11-21T03:05:23;6.80;99.90
8862;DHT22;4799;50.996;4.754;2022-11-21T03:07:49;6.80;99.90
8862;DHT22;4799;50.996;4.754;2022-11-21T03:10:15;6.80;99.90
8862;DHT22;4799;50.996;4.754;2022-11-21T03:12:42;6.80;99.90
8862;DHT22;4799;50.996;4.754;2022-11-21T03:15:10;6.80;99.90
8862;DHT22;4799;50.996;4.754;2022-11-21T03:17:36;6.80;99.90
8862;DHT22;4799;50.996;4.754;2022-11-21T03:20:02;6.80;99.90
8862;DHT22;4799;50.996;4.754;2022-11-21T03:22:28;6.90;99.90
8862;DHT22;4799;50.996;4.754;2022-11-21T03:24:54;6.80;99.90
8862;DHT22;4799;50.996;4.754;2022-11-21T03:27:19;6.80;99.90
8862;DHT22;4799;50.996;4.754;2022-11-21T03:29:45;6.80;99.90
8862;DHT22;4799;50.996;4.754;2022-11-21T03:32:11;6.90;99.90
8862;DHT22;4799;50.996;4.754;2022-11-21T03:34:37;6.80;99.90
8862;DHT22;4799;50.996;4.754;2022-11-21T03:37:02;6.90;99.90
8862;DHT22;4799;50.996;4.754;2022-11-21T03:39:29;6.80;99.90
8862;DHT22;4799;50.996;4.754;2022-11-21T03:41:55;6.80;99.90
8862;DHT22;4799;50.996;4.754;2022-11-21T03:44:21;6.70;99.90
8862;DHT22;4799;50.996;4.754;2022-11-21T03:46:47;6.60;99.90
8862;DHT22;4799;50.996;4.754;2022-11-21T03:49:13;6.60;99.90
8862;DHT22;4799;50.996;4.754;2022-11-21T03:51:42;6.60;99.90
8862;DHT22;4799;50.996;4.754;2022-11-21T03:54:08;6.50;99.90
8862;DHT22;4799;50.996;4.754;2022-11-21T03:56:34;6.50;99.90
8862;DHT22;4799;50.996;4.754;2022-11-21T03:59:00;6.40;99.90
8862;DHT22;4799;50.996;4.754;2022-11-21T04:01:26;6.40;99.90
8862;DHT22;4799;50.996;4.754;2022-11-21T04:03:52;6.30;99.90
8862;DHT22;4799;50.996;4.754;2022-11-21T04:06:20;6.30;99.90
8862;DHT22;4799;50.996;4.754;2022-11-21T04:08:47;6.30;99.90
8862;DHT22;4799;50.996;4.754;2022-11-21T04:11:17;6.30;99.90
8862;DHT22;4799;50.996;4.754;2022-11-21T04:13:42;6.30;99.90
8862;DHT22;4799;50.996;4.754;2022-11-21T04:16:08;6.40;99.90
8862;DHT22;4799;50.996;4.754;2022-11-21T04:18:34;6.40;99.90
8862;DHT22;4799;50.996;4.754;2022-11-21T04:21:03;6.40;99.90
8862;DHT22;4799;50.996;4.754;2022-11-21T04:23:29;6.40;99.90
8862;DHT22;4799;50.996;4.754;2022-11-21T04:25:55;6.40;99.90
8862;DHT22;4799;50.996;4.754;2022-11-21T04:28:21;6.40;99.90
8862;DHT22;4799;50.996;4.754;2022-11-21T04:30:47;6.40;99.90
8862;DHT22;4799;50.996;4.754;2022-11-21T04:33:14;6.40;99.90
8862;DHT22;4799;50.996;4.754;2022-11-21T04:35:41;6.40;99.90
8862;DHT22;4799;50.996;4.754;2022-11-21T04:38:07;6.40;99.90
8862;DHT22;4799;50.996;4.754;2022-11-21T04:40:34;6.40;99.90
8862;DHT22;4799;50.996;4.754;2022-11-21T04:42:59;6.40;99.90
8862;DHT22;4799;50.996;4.754;2022-11-21T04:45:25;6.30;99.90
8862;DHT22;4799;50.996;4.754;2022-11-21T04:47:51;6.30;99.90
8862;DHT22;4799;50.996;4.754;2022-11-21T04:50:18;6.30;99.90
8862;DHT22;4799;50.996;4.754;2022-11-21T04:52:50;6.30;99.90
8862;DHT22;4799;50.996;4.754;2022-11-21T04:55:16;6.30;99.90
8862;DHT22;4799;50.996;4.754;2022-11-21T04:57:42;6.20;99.90
8862;DHT22;4799;50.996;4.754;2022-11-21T05:00:08;6.30;99.90
8862;DHT22;4799;50.996;4.754;2022-11-21T05:02:34;6.30;99.90
8862;DHT22;4799;50.996;4.754;2022-11-21T05:05:00;6.30;99.90
8862;DHT22;4799;50.996;4.754;2022-11-21T05:07:25;6.30;99.90
8862;DHT22;4799;50.996;4.754;2022-11-21T05:09:51;6.30;99.90
8862;DHT22;4799;50.996;4.754;2022-11-21T05:12:17;6.30;99.90
8862;DHT22;4799;50.996;4.754;2022-11-21T05:15:01;6.30;99.90
8862;DHT22;4799;50.996;4.754;2022-11-21T05:17:30;6.30;99.90
8862;DHT22;4799;50.996;4.754;2022-11-21T05:19:55;6.30;99.90
8862;DHT22;4799;50.996;4.754;2022-11-21T05:22:21;6.30;99.90
8862;DHT22;4799;50.996;4.754;2022-11-21T05:24:47;6.30;99.90
8862;DHT22;4799;50.996;4.754;2022-11-21T05:27:13;6.30;99.90
8862;DHT22;4799;50.996;4.754;2022-11-21T05:29:38;6.30;99.90
8862;DHT22;4799;50.996;4.754;2022-11-21T05:32:04;6.30;99.90
8862;DHT22;4799;50.996;4.754;2022-11-21T05:34:30;6.30;99.90
8862;DHT22;4799;50.996;4.754;2022-11-21T05:36:55;6.30;99.90
8862;DHT22;4799;50.996;4.754;2022-11-21T05:39:24;6.30;99.90
8862;DHT22;4799;50.996;4.754;2022-11-21T05:41:51;6.20;99.90
8862;DHT22;4799;50.996;4.754;2022-11-21T05:44:16;6.20;99.90
8862;DHT22;4799;50.996;4.754;2022-11-21T05:46:42;6.20;99.90
8862;DHT22;4799;50.996;4.754;2022-11-21T05:49:08;6.30;99.90
8862;DHT22;4799;50.996;4.754;2022-11-21T05:51:34;6.20;99.90
8862;DHT22;4799;50.996;4.754;2022-11-21T05:54:00;6.20;99.90
8862;DHT22;4799;50.996;4.754;2022-11-21T05:56:26;6.20;99.90
8862;DHT22;4799;50.996;4.754;2022-11-21T05:58:54;6.20;99.90
8862;DHT22;4799;50.996;4.754;2022-11-21T06:01:20;6.10;99.90
8862;DHT22;4799;50.996;4.754;2022-11-21T06:04:07;6.10;99.90
8862;DHT22;4799;50.996;4.754;2022-11-21T06:06:33;6.00;99.90
8862;DHT22;4799;50.996;4.754;2022-11-21T06:09:00;6.00;99.90
8862;DHT22;4799;50.996;4.754;2022-11-21T06:11:25;5.90;99.90
8862;DHT22;4799;50.996;4.754;2022-11-21T06:13:52;5.80;99.90
8862;DHT22;4799;50.996;4.754;2022-11-21T06:16:18;5.70;99.90
8862;DHT22;4799;50.996;4.754;2022-11-21T06:18:49;5.60;99.90
8862;DHT22;4799;50.996;4.754;2022-11-21T06:21:19;5.50;99.90
8862;DHT22;4799;50.996;4.754;2022-11-21T06:23:45;5.50;99.90
8862;DHT22;4799;50.996;4.754;2022-11-21T06:26:14;5.40;99.90
8862;DHT22;4799;50.996;4.754;2022-11-21T06:28:40;5.40;99.90
8862;DHT22;4799;50.996;4.754;2022-11-21T06:31:18;5.30;99.90
8862;DHT22;4799;50.996;4.754;2022-11-21T06:33:45;5.20;99.90
8862;DHT22;4799;50.996;4.754;2022-11-21T06:36:16;5.20;99.90
8862;DHT22;4799;50.996;4.754;2022-11-21T06:38:43;5.10;99.90
8862;DHT22;4799;50.996;4.754;2022-11-21T06:41:17;5.00;99.90
8862;DHT22;4799;50.996;4.754;2022-11-21T06:43:43;5.00;99.90
8862;DHT22;4799;50.996;4.754;2022-11-21T06:46:10;4.90;99.90
8862;DHT22;4799;50.996;4.754;2022-11-21T06:48:36;4.90;99.90
8862;DHT22;4799;50.996;4.754;2022-11-21T06:51:23;4.80;99.90
8862;DHT22;4799;50.996;4.754;2022-11-21T06:53:56;4.80;99.90
8862;DHT22;4799;50.996;4.754;2022-11-21T06:56:30;4.70;99.90
8862;DHT22;4799;50.996;4.754;2022-11-21T06:58:56;4.70;99.90
8862;DHT22;4799;50.996;4.754;2022-11-21T07:01:22;4.60;99.90
8862;DHT22;4799;50.996;4.754;2022-11-21T07:03:48;4.60;99.90
8862;DHT22;4799;50.996;4.754;2022-11-21T07:06:13;4.60;99.90
8862;DHT22;4799;50.996;4.754;2022-11-21T07:08:39;4.60;99.90
8862;DHT22;4799;50.996;4.754;2022-11-21T07:11:10;4.50;99.90
8862;DHT22;4799;50.996;4.754;2022-11-21T07:13:36;4.50;99.90
8862;DHT22;4799;50.996;4.754;2022-11-21T07:16:05;4.50;99.90
8862;DHT22;4799;50.996;4.754;2022-11-21T07:18:32;4.50;99.90
8862;DHT22;4799;50.996;4.754;2022-11-21T07:20:59;4.50;99.90
8862;DHT22;4799;50.996;4.754;2022-11-21T07:23:26;4.50;99.90
8862;DHT22;4799;50.996;4.754;2022-11-21T07:25:52;4.50;99.90
8862;DHT22;4799;50.996;4.754;2022-11-21T07:28:18;4.50;99.90
8862;DHT22;4799;50.996;4.754;2022-11-21T07:30:44;4.40;99.90
8862;DHT22;4799;50.996;4.754;2022-11-21T07:33:09;4.50;99.90
8862;DHT22;4799;50.996;4.754;2022-11-21T07:35:35;4.40;99.90
8862;DHT22;4799;50.996;4.754;2022-11-21T07:38:02;4.40;99.90
8862;DHT22;4799;50.996;4.754;2022-11-21T07:40:28;4.50;99.90
8862;DHT22;4799;50.996;4.754;2022-11-21T07:43:03;4.50;99.90
8862;DHT22;4799;50.996;4.754;2022-11-21T07:45:29;4.50;99.90
8862;DHT22;4799;50.996;4.754;2022-11-21T07:47:59;4.50;99.90
8862;DHT22;4799;50.996;4.754;2022-11-21T07:50:26;4.50;99.90
8862;DHT22;4799;50.996;4.754;2022-11-21T07:52:59;4.50;99.90
8862;DHT22;4799;50.996;4.754;2022-11-21T07:55:25;4.60;99.90
8862;DHT22;4799;50.996;4.754;2022-11-21T07:58:08;4.60;99.90
8862;DHT22;4799;50.996;4.754;2022-11-21T08:00:36;4.60;99.90
8862;DHT22;4799;50.996;4.754;2022-11-21T08:03:05;4.70;99.90
8862;DHT22;4799;50.996;4.754;2022-11-21T08:05:35;4.70;99.90
8862;DHT22;4799;50.996;4.754;2022-11-21T08:08:01;4.70;99.90
8862;DHT22;4799;50.996;4.754;2022-11-21T08:10:27;4.80;99.90
8862;DHT22;4799;50.996;4.754;2022-11-21T08:12:53;4.80;99.90
8862;DHT22;4799;50.996;4.754;2022-11-21T08:15:18;4.80;99.90
8862;DHT22;4799;50.996;4.754;2022-11-21T08:17:44;4.80;99.90
8862;DHT22;4799;50.996;4.754;2022-11-21T08:20:10;4.80;99.90
8862;DHT22;4799;50.996;4.754;2022-11-21T08:22:40;4.90;99.90
8862;DHT22;4799;50.996;4.754;2022-11-21T08:25:07;4.90;99.90
8862;DHT22;4799;50.996;4.754;2022-11-21T08:27:33;4.90;99.90
8862;DHT22;4799;50.996;4.754;2022-11-21T08:29:58;4.90;99.90
8862;DHT22;4799;50.996;4.754;2022-11-21T08:32:24;5.00;99.90
8862;DHT22;4799;50.996;4.754;2022-11-21T08:34:50;5.00;99.90
8862;DHT22;4799;50.996;4.754;2022-11-21T08:37:15;5.00;99.90
8862;DHT22;4799;50.996;4.754;2022-11-21T08:39:41;5.10;99.90
8862;DHT22;4799;50.996;4.754;2022-11-21T08:42:08;5.10;99.90
8862;DHT22;4799;50.996;4.754;2022-11-21T08:44:34;5.10;99.90
8862;DHT22;4799;50.996;4.754;2022-11-21T08:47:00;5.20;99.90
8862;DHT22;4799;50.996;4.754;2022-11-21T08:49:26;5.20;99.90
8862;DHT22;4799;50.996;4.754;2022-11-21T08:51:53;5.30;99.90
8862;DHT22;4799;50.996;4.754;2022-11-21T08:54:21;5.30;99.90
8862;DHT22;4799;50.996;4.754;2022-11-21T08:56:48;5.40;99.90
8862;DHT22;4799;50.996;4.754;2022-11-21T08:59:14;5.50;99.90
8862;DHT22;4799;50.996;4.754;2022-11-21T09:01:40;5.50;99.90
8862;DHT22;4799;50.996;4.754;2022-11-21T09:04:06;5.60;99.90
8862;DHT22;4799;50.996;4.754;2022-11-21T09:06:32;5.60;99.90
8862;DHT22;4799;50.996;4.754;2022-11-21T09:08:58;5.70;99.90
8862;DHT22;4799;50.996;4.754;2022-11-21T09:11:24;5.70;99.90
8862;DHT22;4799;50.996;4.754;2022-11-21T09:13:53;5.80;99.90
8862;DHT22;4799;50.996;4.754;2022-11-21T09:16:38;5.80;99.90
8862;DHT22;4799;50.996;4.754;2022-11-21T09:19:22;5.90;99.90
8862;DHT22;4799;50.996;4.754;2022-11-21T09:21:49;5.90;99.90
8862;DHT22;4799;50.996;4.754;2022-11-21T09:24:16;5.90;99.90
8862;DHT22;4799;50.996;4.754;2022-11-21T09:26:42;6.00;99.90
8862;DHT22;4799;50.996;4.754;2022-11-21T09:29:08;6.00;99.90
8862;DHT22;4799;50.996;4.754;2022-11-21T09:31:37;6.00;99.90
8862;DHT22;4799;50.996;4.754;2022-11-21T09:34:03;6.10;99.90
8862;DHT22;4799;50.996;4.754;2022-11-21T09:36:28;6.10;99.90
8862;DHT22;4799;50.996;4.754;2022-11-21T09:38:54;6.10;99.90
8862;DHT22;4799;50.996;4.754;2022-11-21T09:47:19;6.20;99.90
8862;DHT22;4799;50.996;4.754;2022-11-21T09:50:15;6.20;99.90
8862;DHT22;4799;50.996;4.754;2022-11-21T09:58:05;6.30;99.90
8862;DHT22;4799;50.996;4.754;2022-11-21T10:00:34;6.30;99.90
8862;DHT22;4799;50.996;4.754;2022-11-21T10:03:00;6.40;99.90
8862;DHT22;4799;50.996;4.754;2022-11-21T10:05:35;6.50;99.90
8862;DHT22;4799;50.996;4.754;2022-11-21T10:08:12;6.50;99.90
8862;DHT22;4799;50.996;4.754;2022-11-21T10:10:57;6.60;99.90
8862;DHT22;4799;50.996;4.754;2022-11-21T10:16:20;6.80;99.90
8862;DHT22;4799;50.996;4.754;2022-11-21T10:21:58;7.00;99.90
8862;DHT22;4799;50.996;4.754;2022-11-21T10:27:33;7.20;99.90
8862;DHT22;4799;50.996;4.754;2022-11-21T10:30:05;7.30;99.90
8862;DHT22;4799;50.996;4.754;2022-11-21T10:32:41;7.40;99.90
8862;DHT22;4799;50.996;4.754;2022-11-21T10:35:29;7.50;99.90
8862;DHT22;4799;50.996;4.754;2022-11-21T10:38:01;7.60;99.90
8862;DHT22;4799;50.996;4.754;2022-11-21T10:40:39;7.70;99.90
8862;DHT22;4799;50.996;4.754;2022-11-21T10:43:21;7.80;99.90
8862;DHT22;4799;50.996;4.754;2022-11-21T10:46:07;7.90;99.90
8862;DHT22;4799;50.996;4.754;2022-11-21T10:48:33;8.00;99.90
8862;DHT22;4799;50.996;4.754;2022-11-21T10:54:09;8.20;99.90
8862;DHT22;4799;50.996;4.754;2022-11-21T10:57:05;8.30;99.90
8862;DHT22;4799;50.996;4.754;2022-11-21T10:59:32;8.30;99.90
8862;DHT22;4799;50.996;4.754;2022-11-21T11:02:00;8.40;99.90
8862;DHT22;4799;50.996;4.754;2022-11-21T11:04:31;8.40;99.90
8862;DHT22;4799;50.996;4.754;2022-11-21T11:06:57;8.50;99.90
8862;DHT22;4799;50.996;4.754;2022-11-21T11:09:38;8.50;99.90
8862;DHT22;4799;50.996;4.754;2022-11-21T11:14:53;8.50;99.90
8862;DHT22;4799;50.996;4.754;2022-11-21T11:17:30;8.50;99.90
8862;DHT22;4799;50.996;4.754;2022-11-21T11:20:31;8.50;99.90
8862;DHT22;4799;50.996;4.754;2022-11-21T11:22:57;8.50;99.90
8862;DHT22;4799;50.996;4.754;2022-11-21T11:25:23;8.50;99.90
8862;DHT22;4799;50.996;4.754;2022-11-21T11:27:48;8.50;99.90
8862;DHT22;4799;50.996;4.754;2022-11-21T11:30:18;8.60;99.90
8862;DHT22;4799;50.996;4.754;2022-11-21T11:32:44;8.50;99.90
8862;DHT22;4799;50.996;4.754;2022-11-21T11:35:21;8.60;99.90
8862;DHT22;4799;50.996;4.754;2022-11-21T11:38:07;8.60;99.90
8862;DHT22;4799;50.996;4.754;2022-11-21T11:40:42;8.60;99.90
8862;DHT22;4799;50.996;4.754;2022-11-21T11:46:24;8.70;99.90
8862;DHT22;4799;50.996;4.754;2022-11-21T11:49:32;8.70;99.90
8862;DHT22;4799;50.996;4.754;2022-11-21T11:52:21;8.80;99.90
8862;DHT22;4799;50.996;4.754;2022-11-21T11:54:55;8.80;99.90
8862;DHT22;4799;50.996;4.754;2022-11-21T11:57:22;8.90;99.90
8862;DHT22;4799;50.996;4.754;2022-11-21T11:59:59;8.80;99.90
8862;DHT22;4799;50.996;4.754;2022-11-21T12:02:56;8.90;99.90
8862;DHT22;4799;50.996;4.754;2022-11-21T12:05:24;8.90;99.90
8862;DHT22;4799;50.996;4.754;2022-11-21T12:10:47;9.10;99.90
8862;DHT22;4799;50.996;4.754;2022-11-21T12:13:33;9.10;99.90
8862;DHT22;4799;50.996;4.754;2022-11-21T12:16:05;9.00;99.90
8862;DHT22;4799;50.996;4.754;2022-11-21T12:18:51;9.10;99.90
8862;DHT22;4799;50.996;4.754;2022-11-21T12:21:19;9.10;99.90
8862;DHT22;4799;50.996;4.754;2022-11-21T12:23:56;9.10;99.90
8862;DHT22;4799;50.996;4.754;2022-11-21T12:34:58;9.10;99.90
8862;DHT22;4799;50.996;4.754;2022-11-21T12:43:34;9.20;99.90
8862;DHT22;4799;50.996;4.754;2022-11-21T12:46:16;9.30;99.90
8862;DHT22;4799;50.996;4.754;2022-11-21T12:52:17;9.40;99.90
8862;DHT22;4799;50.996;4.754;2022-11-21T12:57:15;9.50;99.90
8862;DHT22;4799;50.996;4.754;2022-11-21T13:05:30;9.50;99.90
8862;DHT22;4799;50.996;4.754;2022-11-21T13:08:07;9.50;99.90
8862;DHT22;4799;50.996;4.754;2022-11-21T13:10:35;9.50;99.90
8862;DHT22;4799;50.996;4.754;2022-11-21T13:13:16;9.50;99.90
8862;DHT22;4799;50.996;4.754;2022-11-21T13:15:51;9.50;99.90
8862;DHT22;4799;50.996;4.754;2022-11-21T13:18:22;9.50;99.90
8862;DHT22;4799;50.996;4.754;2022-11-21T13:20:50;9.50;99.90
8862;DHT22;4799;50.996;4.754;2022-11-21T13:23:39;9.50;99.90
8862;DHT22;4799;50.996;4.754;2022-11-21T13:28:49;9.60;99.90
8862;DHT22;4799;50.996;4.754;2022-11-21T13:31:28;9.60;99.90
8862;DHT22;4799;50.996;4.754;2022-11-21T13:33:55;9.60;99.90
8862;DHT22;4799;50.996;4.754;2022-11-21T13:55:34;9.70;99.90
8862;DHT22;4799;50.996;4.754;2022-11-21T14:07:35;9.50;99.90
8862;DHT22;4799;50.996;4.754;2022-11-21T14:10:17;9.50;99.90
8862;DHT22;4799;50.996;4.754;2022-11-21T14:12:47;9.40;99.90
8862;DHT22;4799;50.996;4.754;2022-11-21T14:17:58;9.30;99.90
8862;DHT22;4799;50.996;4.754;2022-11-21T14:20:28;9.30;99.90
8862;DHT22;4799;50.996;4.754;2022-11-21T14:23:16;9.20;99.90
8862;DHT22;4799;50.996;4.754;2022-11-21T14:28:30;9.10;99.90
8862;DHT22;4799;50.996;4.754;2022-11-21T14:31:04;9.10;99.90
8862;DHT22;4799;50.996;4.754;2022-11-21T14:33:34;9.10;99.90
8862;DHT22;4799;50.996;4.754;2022-11-21T14:38:48;9.10;99.90
8862;DHT22;4799;50.996;4.754;2022-11-21T14:41:25;9.00;99.90
8862;DHT22;4799;50.996;4.754;2022-11-21T14:46:28;9.00;99.90
8862;DHT22;4799;50.996;4.754;2022-11-21T14:48:55;9.00;99.90
8862;DHT22;4799;50.996;4.754;2022-11-21T14:51:24;9.00;99.90
8862;DHT22;4799;50.996;4.754;2022-11-21T14:53:52;9.00;99.90
8862;DHT22;4799;50.996;4.754;2022-11-21T14:56:29;8.90;99.90
8862;DHT22;4799;50.996;4.754;2022-11-21T14:58:57;8.90;99.90
8862;DHT22;4799;50.996;4.754;2022-11-21T15:01:32;8.90;99.90
8862;DHT22;4799;50.996;4.754;2022-11-21T15:04:02;8.90;99.90
8862;DHT22;4799;50.996;4.754;2022-11-21T15:06:30;8.90;99.90
8862;DHT22;4799;50.996;4.754;2022-11-21T15:08:59;8.90;99.90
8862;DHT22;4799;50.996;4.754;2022-11-21T15:12:04;8.90;99.90
8862;DHT22;4799;50.996;4.754;2022-11-21T15:14:41;8.90;99.90
8862;DHT22;4799;50.996;4.754;2022-11-21T15:17:12;8.80;99.90
8862;DHT22;4799;50.996;4.754;2022-11-21T15:19:39;8.80;99.90
8862;DHT22;4799;50.996;4.754;2022-11-21T15:22:14;8.80;99.90
8862;DHT22;4799;50.996;4.754;2022-11-21T15:24:43;8.80;99.90
8862;DHT22;4799;50.996;4.754;2022-11-21T15:27:29;8.80;99.90
8862;DHT22;4799;50.996;4.754;2022-11-21T15:38:30;8.70;99.90
8862;DHT22;4799;50.996;4.754;2022-11-21T15:46:02;8.60;99.90
8862;DHT22;4799;50.996;4.754;2022-11-21T15:48:28;8.60;99.90
8862;DHT22;4799;50.996;4.754;2022-11-21T15:50:55;8.60;99.90
8862;DHT22;4799;50.996;4.754;2022-11-21T15:53:21;8.60;99.90
8862;DHT22;4799;50.996;4.754;2022-11-21T15:55:47;8.50;99.90
8862;DHT22;4799;50.996;4.754;2022-11-21T15:58:13;8.50;99.90
8862;DHT22;4799;50.996;4.754;2022-11-21T16:00:38;8.50;99.90
8862;DHT22;4799;50.996;4.754;2022-11-21T16:03:04;8.50;99.90
8862;DHT22;4799;50.996;4.754;2022-11-21T16:05:30;8.50;99.90
8862;DHT22;4799;50.996;4.754;2022-11-21T16:07:55;8.50;99.90
8862;DHT22;4799;50.996;4.754;2022-11-21T16:10:21;8.50;99.90
8862;DHT22;4799;50.996;4.754;2022-11-21T16:12:47;8.50;99.90
8862;DHT22;4799;50.996;4.754;2022-11-21T16:15:12;8.50;99.90
8862;DHT22;4799;50.996;4.754;2022-11-21T16:17:38;8.40;99.90
8862;DHT22;4799;50.996;4.754;2022-11-21T16:20:06;8.40;99.90
8862;DHT22;4799;50.996;4.754;2022-11-21T16:22:32;8.50;99.90
8862;DHT22;4799;50.996;4.754;2022-11-21T16:24:58;8.50;99.90
8862;DHT22;4799;50.996;4.754;2022-11-21T16:27:24;8.50;99.90
8862;DHT22;4799;50.996;4.754;2022-11-21T16:29:49;8.50;99.90
8862;DHT22;4799;50.996;4.754;2022-11-21T16:32:15;8.50;99.90
8862;DHT22;4799;50.996;4.754;2022-11-21T16:34:41;8.50;99.90
8862;DHT22;4799;50.996;4.754;2022-11-21T16:37:06;8.50;99.90
8862;DHT22;4799;50.996;4.754;2022-11-21T16:39:32;8.50;99.90
8862;DHT22;4799;50.996;4.754;2022-11-21T16:41:58;8.50;99.90
8862;DHT22;4799;50.996;4.754;2022-11-21T16:44:25;8.50;99.90
8862;DHT22;4799;50.996;4.754;2022-11-21T16:46:53;8.50;99.90
8862;DHT22;4799;50.996;4.754;2022-11-21T16:49:20;8.50;99.90
8862;DHT22;4799;50.996;4.754;2022-11-21T16:51:46;8.50;99.90
8862;DHT22;4799;50.996;4.754;2022-11-21T16:54:11;8.50;99.90
8862;DHT22;4799;50.996;4.754;2022-11-21T16:56:37;8.50;99.90
8862;DHT22;4799;50.996;4.754;2022-11-21T16:59:03;8.50;99.90
8862;DHT22;4799;50.996;4.754;2022-11-21T17:01:29;8.50;99.90
8862;DHT22;4799;50.996;4.754;2022-11-21T17:03:54;8.50;99.90
8862;DHT22;4799;50.996;4.754;2022-11-21T17:06:22;8.50;99.90
8862;DHT22;4799;50.996;4.754;2022-11-21T17:08:50;8.50;99.90
8862;DHT22;4799;50.996;4.754;2022-11-21T17:11:24;8.50;99.90
8862;DHT22;4799;50.996;4.754;2022-11-21T17:13:55;8.50;99.90
8862;DHT22;4799;50.996;4.754;2022-11-21T17:16:22;8.50;99.90
8862;DHT22;4799;50.996;4.754;2022-11-21T17:18:52;8.50;99.90
8862;DHT22;4799;50.996;4.754;2022-11-21T17:21:18;8.50;99.90
8862;DHT22;4799;50.996;4.754;2022-11-21T17:23:45;8.50;99.90
8862;DHT22;4799;50.996;4.754;2022-11-21T17:26:13;8.40;99.90
8862;DHT22;4799;50.996;4.754;2022-11-21T17:28:40;8.40;99.90
8862;DHT22;4799;50.996;4.754;2022-11-21T17:31:07;8.40;99.90
8862;DHT22;4799;50.996;4.754;2022-11-21T17:33:33;8.40;99.90
8862;DHT22;4799;50.996;4.754;2022-11-21T17:36:04;8.30;99.90
8862;DHT22;4799;50.996;4.754;2022-11-21T17:38:30;8.30;99.90
8862;DHT22;4799;50.996;4.754;2022-11-21T17:41:00;8.30;99.90
8862;DHT22;4799;50.996;4.754;2022-11-21T17:43:27;8.30;99.90
8862;DHT22;4799;50.996;4.754;2022-11-21T17:46:03;8.30;99.90
8862;DHT22;4799;50.996;4.754;2022-11-21T17:48:31;8.20;99.90
8862;DHT22;4799;50.996;4.754;2022-11-21T17:51:05;8.20;99.90
8862;DHT22;4799;50.996;4.754;2022-11-21T17:53:40;8.20;99.90
8862;DHT22;4799;50.996;4.754;2022-11-21T17:56:08;8.10;99.90
8862;DHT22;4799;50.996;4.754;2022-11-21T17:58:35;8.10;99.90
8862;DHT22;4799;50.996;4.754;2022-11-21T18:01:03;8.10;99.90
8862;DHT22;4799;50.996;4.754;2022-11-21T18:03:29;8.10;99.90
8862;DHT22;4799;50.996;4.754;2022-11-21T18:06:12;8.00;99.90
8862;DHT22;4799;50.996;4.754;2022-11-21T18:08:41;8.00;99.90
8862;DHT22;4799;50.996;4.754;2022-11-21T18:11:09;8.00;99.90
8862;DHT22;4799;50.996;4.754;2022-11-21T18:13:35;8.00;99.90
8862;DHT22;4799;50.996;4.754;2022-11-21T18:16:04;8.00;99.90
8862;DHT22;4799;50.996;4.754;2022-11-21T18:18:31;8.00;99.90
8862;DHT22;4799;50.996;4.754;2022-11-21T18:21:06;8.00;99.90
8862;DHT22;4799;50.996;4.754;2022-11-21T18:23:33;8.00;99.90
8862;DHT22;4799;50.996;4.754;2022-11-21T18:26:16;7.90;99.90
8862;DHT22;4799;50.996;4.754;2022-11-21T18:28:45;7.90;99.90
8862;DHT22;4799;50.996;4.754;2022-11-21T18:31:13;7.90;99.90